Satisfaction — WDF7649 — position and weather

sailwx.info

Track history (hours):
 
Tides and Currents Weather Stations Pressure Air Temp Water Temp Dewpoint Dewpoint Depression Visibility Wind Speed Wind Dir Waves Ship Positions

Satisfaction

Owner: Foley, Michael W, Redmond, WA. More information available from US FCC via Universal Licensing System and Coast Guard Vessel Documentation Center.

Last reported at 2017-May-30 12:10 UTC. Time now 2017-May-30 12:53 UTC.
Position N 47°39' W 122°12'.

Length 16 m.

Type: Pleasure craft. MMSI: 367486660.

Date/timePositionNaut miles runAvg speedWind from/ knotsBaromVisibWave heightAir tempDewpointWater temp
2017-May-30 12:10N 47°39' W 122°12'0 0.0
2017-May-30 11:55N 47°39' W 122°12'0 0.0
2017-May-30 11:25N 47°39' W 122°12'0 0.1
2017-May-30 10:58N 47°39' W 122°12'0 0.1
2017-May-30 10:28N 47°39' W 122°12'0 0.0
2017-May-30 09:49N 47°39' W 122°12'0 0.0
2017-May-30 09:28N 47°39' W 122°12'0 0.0
2017-May-30 08:55N 47°39' W 122°12'0 0.0
2017-May-30 08:22N 47°39' W 122°12'0 0.0
2017-May-30 07:52N 47°39' W 122°12'0 0.0
2017-May-30 07:25N 47°39' W 122°12'0 0.0
2017-May-30 06:52N 47°39' W 122°12'0 0.0
2017-May-30 06:25N 47°39' W 122°12'0 0.0
2017-May-30 05:46N 47°39' W 122°12'0 0.0
2017-May-30 05:22N 47°39' W 122°12'0 0.0
2017-May-30 04:56N 47°39' W 122°12'0 0.0
2017-May-30 04:22N 47°39' W 122°12'0 0.0
2017-May-30 03:52N 47°39' W 122°12'0 0.0
2017-May-30 01:52N 47°39' W 122°12'0 0.0
2017-May-30 01:28N 47°39' W 122°12'3 4.5
2017-May-30 00:45N 47°42' W 122°15'0 0.4
2017-May-30 00:30N 47°42' W 122°15'0 0.3
2017-May-29 23:45N 47°42' W 122°15'0 0.5
2017-May-29 23:21N 47°42' W 122°15'0 0.6
2017-May-29 22:57N 47°42' W 122°15'1 0.3
2017-May-29 20:55N 47°41' W 122°14'1 2.4
2017-May-29 20:28N 47°41' W 122°13'2 1.0
2017-May-29 18:59N 47°39' W 122°12'0 0.1
2017-May-29 18:29N 47°39' W 122°12'0 0.0
2017-May-29 17:59N 47°39' W 122°12'0 0.0
2017-May-29 17:29N 47°39' W 122°12'0 0.0
2017-May-29 16:59N 47°39' W 122°12'0 0.0
2017-May-29 16:29N 47°39' W 122°12'0 0.0
2017-May-29 15:59N 47°39' W 122°12'0 0.0
2017-May-29 15:29N 47°39' W 122°12'0 0.0
2017-May-29 14:59N 47°39' W 122°12'0 0.0
2017-May-29 13:59N 47°39' W 122°12'0 0.0
2017-May-29 13:29N 47°39' W 122°12'0 0.0
2017-May-29 12:59N 47°39' W 122°12'0 0.0
2017-May-29 12:26N 47°39' W 122°12'0 0.0
2017-May-29 11:50N 47°39' W 122°12'0 0.0
2017-May-29 11:14N 47°39' W 122°12'0 0.1
2017-May-29 10:53N 47°39' W 122°12'0 0.1
2017-May-29 10:29N 47°39' W 122°12'0 0.0
2017-May-29 09:50N 47°39' W 122°12'0 0.0
2017-May-29 09:29N 47°39' W 122°12'0 0.0
2017-May-29 08:59N 47°39' W 122°12'0 0.0
2017-May-29 08:29N 47°39' W 122°12'0 0.0
2017-May-29 07:56N 47°39' W 122°12'0 0.0
2017-May-29 07:23N 47°39' W 122°12'0 0.0
2017-May-29 06:53N 47°39' W 122°12'0 0.0
2017-May-29 06:26N 47°39' W 122°12'0 0.0
2017-May-29 05:59N 47°39' W 122°12'0 0.0
2017-May-29 05:29N 47°39' W 122°12'0 0.0
2017-May-29 04:59N 47°39' W 122°12'0 0.0
2017-May-29 04:20N 47°39' W 122°12'0 0.0
2017-May-29 03:50N 47°39' W 122°12'0 0.0
2017-May-29 03:08N 47°39' W 122°12'0 0.0
2017-May-29 02:50N 47°39' W 122°12'0 0.0
2017-May-29 02:29N 47°39' W 122°12'0 0.0
2017-May-29 01:38N 47°39' W 122°12'0 0.0
2017-May-29 01:26N 47°39' W 122°12'0 0.0
2017-May-29 00:59N 47°39' W 122°12'0 0.0
2017-May-29 00:08N 47°39' W 122°12'0 0.0
2017-May-28 23:38N 47°39' W 122°12'0 0.9
2017-May-28 23:29N 47°39' W 122°13'1 1.7
2017-May-28 22:58N 47°39' W 122°14'1 0.3
2017-May-28 20:10N 47°39' W 122°12'0 0.2
2017-May-28 19:55N 47°39' W 122°12'0 0.1
2017-May-28 19:28N 47°39' W 122°12'0 0.0
2017-May-28 18:52N 47°39' W 122°12'0 0.0
2017-May-28 18:07N 47°39' W 122°12'0 0.0
2017-May-28 17:58N 47°39' W 122°12'0 0.0
2017-May-28 17:28N 47°39' W 122°12'0 0.0
2017-May-28 16:55N 47°39' W 122°12'0 0.0
2017-May-28 16:25N 47°39' W 122°12'0 0.0
2017-May-28 15:58N 47°39' W 122°12'0 0.0
2017-May-28 15:28N 47°39' W 122°12'0 0.1
2017-May-28 14:46N 47°39' W 122°12'0 0.1
2017-May-28 13:58N 47°39' W 122°12'0 0.0
2017-May-28 13:19N 47°39' W 122°12'0 0.0
2017-May-28 12:52N 47°39' W 122°12'0 0.0
2017-May-28 12:25N 47°39' W 122°12'0 0.0
2017-May-28 11:55N 47°39' W 122°12'0 0.0
2017-May-28 11:25N 47°39' W 122°12'0 0.1
2017-May-28 10:58N 47°39' W 122°12'0 0.1
2017-May-28 10:13N 47°39' W 122°12'0 0.0
2017-May-28 09:58N 47°39' W 122°12'0 0.0
2017-May-28 09:25N 47°39' W 122°12'0 0.0
2017-May-28 08:58N 47°39' W 122°12'0 0.0
2017-May-28 08:28N 47°39' W 122°12'0 0.0
2017-May-28 07:58N 47°39' W 122°12'0 0.0
2017-May-28 07:19N 47°39' W 122°12'0 0.0
2017-May-28 06:55N 47°39' W 122°12'0 0.0
2017-May-28 06:28N 47°39' W 122°12'0 0.0
2017-May-28 05:55N 47°39' W 122°12'0 0.0
2017-May-28 05:19N 47°39' W 122°12'0 0.0
2017-May-28 04:55N 47°39' W 122°12'0 0.0
2017-May-28 04:10N 47°39' W 122°12'1 2.9
2017-May-28 03:53N 47°39' W 122°14'2 6.1
2017-May-28 03:30N 47°37' W 122°14'0 0.0
2017-May-28 03:00N 47°37' W 122°14'0 0.0
2017-May-28 02:27N 47°37' W 122°14'0 0.0
2017-May-28 02:00N 47°37' W 122°14'0 0.0
2017-May-28 01:30N 47°37' W 122°14'0 0.0
2017-May-28 01:00N 47°37' W 122°14'0 0.2
2017-May-28 00:22N 47°37' W 122°15'3 1.8
2017-May-27 22:52N 47°39' W 122°12'0 0.0
2017-May-27 22:25N 47°39' W 122°12'0 0.0
2017-May-27 21:56N 47°39' W 122°12'0 0.0
2017-May-27 21:11N 47°39' W 122°12'0 0.0
2017-May-27 20:52N 47°39' W 122°12'0 0.2
2017-May-27 20:28N 47°39' W 122°13'0 0.1
2017-May-27 19:46N 47°39' W 122°12'0 0.0
2017-May-27 19:28N 47°39' W 122°12'0 0.0
2017-May-27 18:55N 47°39' W 122°12'0 0.0
2017-May-27 18:28N 47°39' W 122°12'0 0.0
2017-May-27 17:55N 47°39' W 122°12'0 0.0
2017-May-27 17:25N 47°39' W 122°12'0 0.0
2017-May-27 16:58N 47°39' W 122°12'0 0.0
2017-May-27 16:28N 47°39' W 122°12'0 0.0
2017-May-27 15:58N 47°39' W 122°12'0 0.0
2017-May-27 15:28N 47°39' W 122°12'0 0.0
2017-May-27 14:55N 47°39' W 122°12'0 0.0
2017-May-27 14:25N 47°39' W 122°12'0 0.0
2017-May-27 13:25N 47°39' W 122°12'0 0.0
2017-May-27 12:52N 47°39' W 122°12'0 0.0
2017-May-27 12:28N 47°39' W 122°12'0 0.0
2017-May-27 11:58N 47°39' W 122°12'0 0.1
2017-May-27 11:28N 47°39' W 122°12'0 0.1
2017-May-27 10:52N 47°39' W 122°12'0 0.0
2017-May-27 10:22N 47°39' W 122°12'0 0.0
2017-May-27 09:43N 47°39' W 122°12'0 0.0
2017-May-27 09:22N 47°39' W 122°12'0 0.0
2017-May-27 08:58N 47°39' W 122°12'0 0.0
2017-May-27 08:25N 47°39' W 122°12'0 0.0
2017-May-27 07:55N 47°39' W 122°12'0 0.0
2017-May-27 07:28N 47°39' W 122°12'0 0.0
2017-May-27 06:55N 47°39' W 122°12'0 0.0
2017-May-27 06:28N 47°39' W 122°12'0 0.0
2017-May-27 05:58N 47°39' W 122°12'0 0.0
2017-May-27 05:25N 47°39' W 122°12'0 0.0
2017-May-27 04:55N 47°39' W 122°12'0 0.0
2017-May-27 04:25N 47°39' W 122°12'0 0.0
2017-May-27 03:52N 47°39' W 122°12'0 0.0
2017-May-27 03:28N 47°39' W 122°12'0 0.0
2017-May-27 02:58N 47°39' W 122°12'0 0.0
2017-May-27 02:28N 47°39' W 122°12'0 0.0
2017-May-27 01:58N 47°39' W 122°12'0 0.0
2017-May-27 01:22N 47°39' W 122°12'0 0.0
2017-May-27 00:58N 47°39' W 122°12'0 0.0
2017-May-27 00:22N 47°39' W 122°12'0 0.0
2017-May-26 23:58N 47°39' W 122°12'0 0.0
2017-May-26 23:19N 47°39' W 122°12'0 0.0
2017-May-26 22:58N 47°39' W 122°12'0 0.0
2017-May-26 22:28N 47°39' W 122°12'0 0.0
2017-May-26 21:55N 47°39' W 122°12'0 0.0
2017-May-26 21:22N 47°39' W 122°12'0 0.0
2017-May-26 20:58N 47°39' W 122°12'0 0.0
2017-May-26 20:25N 47°39' W 122°12'0 0.1
2017-May-26 19:58N 47°39' W 122°12'0 0.1
2017-May-26 19:25N 47°39' W 122°12'0 0.0
2017-May-26 18:46N 47°39' W 122°12'0 0.0
2017-May-26 18:28N 47°39' W 122°12'0 0.0
2017-May-26 17:52N 47°39' W 122°12'0 0.0
2017-May-26 17:28N 47°39' W 122°12'0 0.0
2017-May-26 16:58N 47°39' W 122°12'0 0.0
2017-May-26 16:28N 47°39' W 122°12'0 0.0
2017-May-26 14:43N 47°39' W 122°12'0 0.0
2017-May-26 14:19N 47°39' W 122°12'0 0.0
2017-May-26 13:28N 47°39' W 122°12'0 0.0
2017-May-26 12:52N 47°39' W 122°12'0 0.0
2017-May-26 12:25N 47°39' W 122°12'0 0.0
2017-May-26 11:49N 47°39' W 122°12'0 0.0
2017-May-26 11:25N 47°39' W 122°12'0 0.0
2017-May-26 10:49N 47°39' W 122°12'0 0.0
2017-May-26 10:28N 47°39' W 122°12'0 0.0
2017-May-26 09:52N 47°39' W 122°12'0 0.0
2017-May-26 09:22N 47°39' W 122°12'0 0.0
2017-May-26 08:55N 47°39' W 122°12'0 0.0
2017-May-26 08:28N 47°39' W 122°12'0 0.0
2017-May-26 07:58N 47°39' W 122°12'0 0.0
2017-May-26 07:28N 47°39' W 122°12'0 0.0
2017-May-26 06:58N 47°39' W 122°12'0 0.0
2017-May-26 06:16N 47°39' W 122°12'0 0.0
2017-May-26 05:58N 47°39' W 122°12'0 0.0
2017-May-26 05:28N 47°39' W 122°12'0 0.0
2017-May-26 04:58N 47°39' W 122°12'0 0.0
2017-May-26 04:25N 47°39' W 122°12'0 0.0
2017-May-26 03:58N 47°39' W 122°12'0 0.0
2017-May-26 03:28N 47°39' W 122°12'0 0.0
2017-May-26 02:58N 47°39' W 122°12'0 0.0
2017-May-26 02:10N 47°39' W 122°12'0 0.0
2017-May-26 01:58N 47°39' W 122°12'0 0.0
2017-May-26 01:28N 47°39' W 122°12'0 0.0
2017-May-26 00:58N 47°39' W 122°12'0 0.0
2017-May-26 00:28N 47°39' W 122°12'0 0.0
2017-May-25 23:58N 47°39' W 122°12'0 0.0
2017-May-25 23:28N 47°39' W 122°12'0 0.0
2017-May-25 22:55N 47°39' W 122°12'0 0.0
2017-May-25 22:22N 47°39' W 122°12'0 0.0
2017-May-25 21:58N 47°39' W 122°12'0 0.0
2017-May-25 21:28N 47°39' W 122°12'0 0.0
2017-May-25 20:52N 47°39' W 122°12'0 0.0
2017-May-25 20:28N 47°39' W 122°12'0 0.0
2017-May-25 19:58N 47°39' W 122°12'0 0.0
2017-May-25 19:28N 47°39' W 122°12'0 0.0
2017-May-25 18:58N 47°39' W 122°12'0 0.0
2017-May-25 18:28N 47°39' W 122°12'0 0.0
2017-May-25 17:58N 47°39' W 122°12'0 0.0
2017-May-25 17:25N 47°39' W 122°12'0 0.0
2017-May-25 16:58N 47°39' W 122°12'0 0.0
2017-May-25 16:25N 47°39' W 122°12'0 0.0
2017-May-25 15:58N 47°39' W 122°12'0 0.0
2017-May-25 15:22N 47°39' W 122°12'0 0.0
2017-May-25 14:37N 47°39' W 122°12'0 0.0
2017-May-25 13:52N 47°39' W 122°12'0 0.0
2017-May-25 13:28N 47°39' W 122°12'0 0.0
2017-May-25 12:58N 47°39' W 122°12'0 0.0
2017-May-25 12:10N 47°39' W 122°12'0 0.0
2017-May-25 11:49N 47°39' W 122°12'0 0.0
2017-May-25 11:28N 47°39' W 122°12'0 0.0
2017-May-25 10:55N 47°39' W 122°12'0 0.0
2017-May-25 10:13N 47°39' W 122°12'0 0.0
2017-May-25 09:43N 47°39' W 122°12'0 0.0
2017-May-25 09:25N 47°39' W 122°12'0 0.0
2017-May-25 08:58N 47°39' W 122°12'0 0.0
2017-May-25 08:28N 47°39' W 122°12'0 0.0
2017-May-25 07:59N 47°39' W 122°12'0 0.0
2017-May-25 07:16N 47°39' W 122°12'0 0.0
2017-May-25 06:49N 47°39' W 122°12'0 0.0
2017-May-25 06:25N 47°39' W 122°12'0 0.0
2017-May-25 05:58N 47°39' W 122°12'0 0.0
2017-May-25 05:22N 47°39' W 122°12'0 0.0
2017-May-25 04:58N 47°39' W 122°12'0 0.0
2017-May-25 04:13N 47°39' W 122°12'0 0.0
2017-May-25 03:52N 47°39' W 122°12'0 0.0
2017-May-25 03:28N 47°39' W 122°12'0 0.0
2017-May-25 02:46N 47°39' W 122°12'0 0.0
2017-May-25 02:22N 47°39' W 122°12'0 0.0
2017-May-25 01:58N 47°39' W 122°12'0 0.0
2017-May-25 01:19N 47°39' W 122°12'0 0.0
2017-May-25 00:55N 47°39' W 122°12'0 0.0
2017-May-25 00:04N 47°39' W 122°12'0 0.0
2017-May-24 23:40N 47°39' W 122°12'0 0.0
2017-May-24 23:28N 47°39' W 122°12'0 0.0
2017-May-24 22:58N 47°39' W 122°12'0 0.0
2017-May-24 22:28N 47°39' W 122°12'0 0.0
2017-May-24 21:58N 47°39' W 122°12'0 0.0
2017-May-24 21:25N 47°39' W 122°12'0 0.0
2017-May-24 20:34N 47°39' W 122°12'0 0.0
2017-May-24 20:28N 47°39' W 122°12'0 0.0
2017-May-24 19:52N 47°39' W 122°12'0 0.0
2017-May-24 19:22N 47°39' W 122°12'0 0.0
2017-May-24 18:58N 47°39' W 122°12'0 0.0
2017-May-24 18:19N 47°39' W 122°12'0 0.0
2017-May-24 17:52N 47°39' W 122°12'0 0.0
2017-May-24 17:28N 47°39' W 122°12'0 0.0
2017-May-24 16:58N 47°39' W 122°12'0 0.0
2017-May-24 16:28N 47°39' W 122°12'0 0.0
2017-May-24 15:52N 47°39' W 122°12'0 0.0
2017-May-24 15:28N 47°39' W 122°12'0 0.0
2017-May-24 14:55N 47°39' W 122°12'0 0.0
2017-May-24 14:28N 47°39' W 122°12'0 0.0
2017-May-24 13:22N 47°39' W 122°12'0 0.0
2017-May-24 12:52N 47°39' W 122°12'0 0.0
2017-May-24 12:28N 47°39' W 122°12'0 0.0
2017-May-24 11:58N 47°39' W 122°12'0 0.0
2017-May-24 11:28N 47°39' W 122°12'0 0.0
2017-May-24 10:52N 47°39' W 122°12'0 0.0
2017-May-24 10:22N 47°39' W 122°12'0 0.0
2017-May-24 09:58N 47°39' W 122°12'0 0.0
2017-May-24 09:16N 47°39' W 122°12'0 0.0
2017-May-24 08:55N 47°39' W 122°12'0 0.0
2017-May-24 08:28N 47°39' W 122°12'0 0.0
2017-May-24 07:58N 47°39' W 122°12'0 0.0
2017-May-24 07:28N 47°39' W 122°12'0 0.0
2017-May-24 06:49N 47°39' W 122°12'0 0.0
2017-May-24 06:13N 47°39' W 122°12'0 0.0
2017-May-24 05:58N 47°39' W 122°12'0 0.0
2017-May-24 05:28N 47°39' W 122°12'0 0.0
2017-May-24 04:58N 47°39' W 122°12'0 0.0
2017-May-24 04:28N 47°39' W 122°12'0 0.0
2017-May-24 03:58N 47°39' W 122°12'0 0.0
2017-May-24 03:22N 47°39' W 122°12'0 0.0
2017-May-24 02:58N 47°39' W 122°12'0 0.0
2017-May-24 02:28N 47°39' W 122°12'0 0.0
2017-May-24 01:34N 47°39' W 122°12'0 0.0
2017-May-24 01:22N 47°39' W 122°12'0 0.0
2017-May-24 00:58N 47°39' W 122°12'0 0.0
2017-May-24 00:28N 47°39' W 122°12'0 0.0
2017-May-23 23:55N 47°39' W 122°12'0 0.0
2017-May-23 23:28N 47°39' W 122°12'0 0.0
2017-May-23 22:52N 47°39' W 122°12'0 0.0
2017-May-23 22:25N 47°39' W 122°12'0 0.0
2017-May-23 21:58N 47°39' W 122°12'0 0.0
2017-May-23 21:25N 47°39' W 122°12'0 0.0
2017-May-23 20:58N 47°39' W 122°12'0 0.0
2017-May-23 20:28N 47°39' W 122°12'0 0.0
2017-May-23 19:52N 47°39' W 122°12'0 0.0
2017-May-23 19:28N 47°39' W 122°12'0 0.0
2017-May-23 18:52N 47°39' W 122°12'0 0.0
2017-May-23 18:19N 47°39' W 122°12'0 0.0
2017-May-23 17:58N 47°39' W 122°12'0 0.0
2017-May-23 17:28N 47°39' W 122°12'0 0.0
2017-May-23 16:55N 47°39' W 122°12'0 0.0
2017-May-23 16:25N 47°39' W 122°12'0 0.0
2017-May-23 15:58N 47°39' W 122°12'0 0.1
2017-May-23 15:28N 47°39' W 122°12'0 0.1
2017-May-23 14:58N 47°39' W 122°12'0 0.0
2017-May-23 14:28N 47°39' W 122°12'0 0.0
2017-May-23 13:25N 47°39' W 122°12'0 0.0
2017-May-23 12:58N 47°39' W 122°12'0 0.0
2017-May-23 12:25N 47°39' W 122°12'0 0.0
2017-May-23 11:55N 47°39' W 122°12'0 0.0
2017-May-23 11:28N 47°39' W 122°12'0 0.1
2017-May-23 10:58N 47°39' W 122°12'0 0.1
2017-May-23 10:28N 47°39' W 122°12'0 0.0
2017-May-23 09:55N 47°39' W 122°12'0 0.0
2017-May-23 09:28N 47°39' W 122°12'0 0.0
2017-May-23 08:58N 47°39' W 122°12'0 0.0
2017-May-23 08:28N 47°39' W 122°12'0 0.0
2017-May-23 07:52N 47°39' W 122°12'0 0.0
2017-May-23 07:16N 47°39' W 122°12'0 0.0
2017-May-23 06:58N 47°39' W 122°12'0 0.0
2017-May-23 06:25N 47°39' W 122°12'0 0.0
2017-May-23 05:58N 47°39' W 122°12'0 0.0
2017-May-23 05:25N 47°39' W 122°12'0 0.0
2017-May-23 04:58N 47°39' W 122°12'0 0.0
2017-May-23 04:28N 47°39' W 122°12'0 0.0
2017-May-23 03:58N 47°39' W 122°12'0 0.0
2017-May-23 03:28N 47°39' W 122°12'0 0.0
2017-May-23 02:58N 47°39' W 122°12'0 0.0
2017-May-23 02:16N 47°39' W 122°12'0 0.0
2017-May-23 01:55N 47°39' W 122°12'0 0.0
2017-May-23 01:28N 47°39' W 122°12'1 1.6
2017-May-23 00:52N 47°40' W 122°13'1 0.6
2017-May-22 23:03N 47°41' W 122°14'0 0.7
2017-May-22 22:59N 47°41' W 122°14'2 4.1
2017-May-22 22:30N 47°39' W 122°13'0 0.1
2017-May-22 21:58N 47°39' W 122°12'0 0.0
2017-May-22 21:28N 47°39' W 122°12'0 0.0
2017-May-22 20:58N 47°39' W 122°12'0 0.0
2017-May-22 20:28N 47°39' W 122°12'0 0.0
2017-May-22 19:58N 47°39' W 122°12'0 0.0
2017-May-22 19:28N 47°39' W 122°12'0 0.0
2017-May-22 18:55N 47°39' W 122°12'0 0.0
2017-May-22 18:28N 47°39' W 122°12'0 0.0
2017-May-22 17:58N 47°39' W 122°12'0 0.0
2017-May-22 17:28N 47°39' W 122°12'0 0.0
2017-May-22 16:58N 47°39' W 122°12'0 0.0
2017-May-22 16:25N 47°39' W 122°12'0 0.0
2017-May-22 15:58N 47°39' W 122°12'0 0.0
2017-May-22 15:28N 47°39' W 122°12'0 0.0
2017-May-22 14:58N 47°39' W 122°12'0 0.0
2017-May-22 13:55N 47°39' W 122°12'0 0.0
2017-May-22 13:28N 47°39' W 122°12'0 0.0
2017-May-22 12:58N 47°39' W 122°12'0 0.0
2017-May-22 12:28N 47°39' W 122°12'0 0.1
2017-May-22 11:58N 47°39' W 122°12'0 0.0
2017-May-22 11:25N 47°39' W 122°12'0 0.1
2017-May-22 10:58N 47°39' W 122°12'0 0.0
2017-May-22 10:25N 47°39' W 122°12'0 0.0
2017-May-22 09:58N 47°39' W 122°12'0 0.0
2017-May-22 09:28N 47°39' W 122°12'0 0.0
2017-May-22 08:55N 47°39' W 122°12'0 0.0
2017-May-22 08:22N 47°39' W 122°12'0 0.0
2017-May-22 07:55N 47°39' W 122°12'0 0.0
2017-May-22 07:28N 47°39' W 122°12'0 0.0
2017-May-22 06:55N 47°39' W 122°12'0 0.0
2017-May-22 06:28N 47°39' W 122°12'0 0.0
2017-May-22 05:58N 47°39' W 122°12'0 0.0
2017-May-22 05:28N 47°39' W 122°12'0 0.0
2017-May-22 04:52N 47°39' W 122°12'0 0.0
2017-May-22 04:28N 47°39' W 122°12'0 0.0
2017-May-22 03:58N 47°39' W 122°12'0 0.0
2017-May-22 03:28N 47°39' W 122°12'0 0.0
2017-May-22 02:55N 47°39' W 122°12'0 0.0
2017-May-22 02:22N 47°39' W 122°12'0 0.0
2017-May-22 01:58N 47°39' W 122°12'0 0.0
2017-May-22 01:28N 47°39' W 122°12'0 0.0
2017-May-22 00:58N 47°39' W 122°12'0 0.0
2017-May-22 00:28N 47°39' W 122°12'0 0.0
2017-May-21 23:58N 47°39' W 122°12'0 0.0
2017-May-21 23:28N 47°39' W 122°12'0 0.0
2017-May-21 22:58N 47°39' W 122°12'0 0.0
2017-May-21 22:28N 47°39' W 122°12'0 0.0
2017-May-21 21:58N 47°39' W 122°12'0 0.0
2017-May-21 21:28N 47°39' W 122°12'0 0.0
2017-May-21 20:58N 47°39' W 122°12'0 0.0
2017-May-21 20:28N 47°39' W 122°12'0 0.0
2017-May-21 19:58N 47°39' W 122°12'0 0.0
2017-May-21 19:19N 47°39' W 122°12'0 0.0
2017-May-21 18:55N 47°39' W 122°12'0 0.0
2017-May-21 18:28N 47°39' W 122°12'0 0.0
2017-May-21 17:55N 47°39' W 122°12'0 0.0
2017-May-21 17:28N 47°39' W 122°12'0 0.0
2017-May-21 16:58N 47°39' W 122°12'0 0.0
2017-May-21 16:28N 47°39' W 122°12'0 0.0
2017-May-21 15:58N 47°39' W 122°12'0 0.0
2017-May-21 15:28N 47°39' W 122°12'0 0.0
2017-May-21 14:55N 47°39' W 122°12'0 0.0
2017-May-21 14:28N 47°39' W 122°12'0 0.0
2017-May-21 13:28N 47°39' W 122°12'0 0.0
2017-May-21 12:58N 47°39' W 122°12'0 0.0
2017-May-21 12:25N 47°39' W 122°12'0 0.0
2017-May-21 11:58N 47°39' W 122°12'0 0.0
2017-May-21 11:22N 47°39' W 122°12'0 0.0
2017-May-21 10:55N 47°39' W 122°12'0 0.0
2017-May-21 09:55N 47°39' W 122°12'0 0.0
2017-May-21 09:22N 47°39' W 122°12'0 0.0
2017-May-21 08:55N 47°39' W 122°12'0 0.0
2017-May-21 08:25N 47°39' W 122°12'0 0.0
2017-May-21 07:43N 47°39' W 122°12'0 0.0
2017-May-21 07:25N 47°39' W 122°12'0 0.0
2017-May-21 06:52N 47°39' W 122°12'0 0.0
2017-May-21 06:04N 47°39' W 122°12'0 0.0
2017-May-21 05:58N 47°39' W 122°12'0 0.0
2017-May-21 05:22N 47°39' W 122°12'0 0.0
2017-May-21 04:58N 47°39' W 122°12'0 0.0
2017-May-21 04:28N 47°39' W 122°12'0 0.0
2017-May-21 03:52N 47°39' W 122°12'0 0.0
2017-May-21 03:25N 47°39' W 122°12'0 0.0
2017-May-21 02:58N 47°39' W 122°12'0 0.0
2017-May-21 02:28N 47°39' W 122°12'0 0.0
2017-May-21 01:58N 47°39' W 122°12'0 0.0
2017-May-21 01:25N 47°39' W 122°12'0 0.0
2017-May-21 00:58N 47°39' W 122°12'0 0.0
2017-May-21 00:28N 47°39' W 122°12'0 0.0
2017-May-20 23:58N 47°39' W 122°12'0 0.0
2017-May-20 23:28N 47°39' W 122°12'0 0.0
2017-May-20 22:55N 47°39' W 122°12'0 0.0
2017-May-20 22:28N 47°39' W 122°12'0 0.0
2017-May-20 21:55N 47°39' W 122°12'0 0.0
2017-May-20 21:22N 47°39' W 122°12'0 0.0
2017-May-20 20:58N 47°39' W 122°12'0 0.1
2017-May-20 20:28N 47°39' W 122°12'0 0.1
2017-May-20 19:40N 47°39' W 122°12'0 0.0
2017-May-20 19:22N 47°39' W 122°12'0 0.0
2017-May-20 18:52N 47°39' W 122°12'0 0.0
2017-May-20 18:28N 47°39' W 122°12'0 0.0
2017-May-20 17:55N 47°39' W 122°12'0 0.0
2017-May-20 17:16N 47°39' W 122°12'0 0.0
2017-May-20 16:58N 47°39' W 122°12'0 0.0
2017-May-20 16:28N 47°39' W 122°12'0 0.0
2017-May-20 15:58N 47°39' W 122°12'0 0.0
2017-May-20 15:10N 47°39' W 122°12'0 0.0
2017-May-20 14:52N 47°39' W 122°12'0 0.0
2017-May-20 14:28N 47°39' W 122°12'0 0.0
2017-May-20 13:19N 47°39' W 122°12'0 0.0
2017-May-20 12:55N 47°39' W 122°12'0 0.0
2017-May-20 12:25N 47°39' W 122°12'  
Track history (hours):
 
Tides and Currents Weather Stations Pressure Air Temp Water Temp Dewpoint Dewpoint Depression Visibility Wind Speed Wind Dir Waves Ship Positions

Satisfaction

Owner: Foley, Michael W, Redmond, WA. More information available from US FCC via Universal Licensing System and Coast Guard Vessel Documentation Center.

Last reported at 2017-May-30 12:10 UTC. Time now 2017-May-30 12:53 UTC.
Position N 47°39' W 122°12'.

Length 16 m.

Type: Pleasure craft. MMSI: 367486660.

Date/timePositionNaut miles runAvg speedWind from/ knotsBaromVisibWave heightAir tempDewpointWater temp
2017-May-30 12:10N 47°39' W 122°12'0 0.0
2017-May-30 11:55N 47°39' W 122°12'0 0.0
2017-May-30 11:25N 47°39' W 122°12'0 0.1
2017-May-30 10:58N 47°39' W 122°12'0 0.1
2017-May-30 10:28N 47°39' W 122°12'0 0.0
2017-May-30 09:49N 47°39' W 122°12'0 0.0
2017-May-30 09:28N 47°39' W 122°12'0 0.0
2017-May-30 08:55N 47°39' W 122°12'0 0.0
2017-May-30 08:22N 47°39' W 122°12'0 0.0
2017-May-30 07:52N 47°39' W 122°12'0 0.0
2017-May-30 07:25N 47°39' W 122°12'0 0.0
2017-May-30 06:52N 47°39' W 122°12'0 0.0
2017-May-30 06:25N 47°39' W 122°12'0 0.0
2017-May-30 05:46N 47°39' W 122°12'0 0.0
2017-May-30 05:22N 47°39' W 122°12'0 0.0
2017-May-30 04:56N 47°39' W 122°12'0 0.0
2017-May-30 04:22N 47°39' W 122°12'0 0.0
2017-May-30 03:52N 47°39' W 122°12'0 0.0
2017-May-30 01:52N 47°39' W 122°12'0 0.0
2017-May-30 01:28N 47°39' W 122°12'3 4.5
2017-May-30 00:45N 47°42' W 122°15'0 0.4
2017-May-30 00:30N 47°42' W 122°15'0 0.3
2017-May-29 23:45N 47°42' W 122°15'0 0.5
2017-May-29 23:21N 47°42' W 122°15'0 0.6
2017-May-29 22:57N 47°42' W 122°15'1 0.3
2017-May-29 20:55N 47°41' W 122°14'1 2.4
2017-May-29 20:28N 47°41' W 122°13'2 1.0
2017-May-29 18:59N 47°39' W 122°12'0 0.1
2017-May-29 18:29N 47°39' W 122°12'0 0.0
2017-May-29 17:59N 47°39' W 122°12'0 0.0
2017-May-29 17:29N 47°39' W 122°12'0 0.0
2017-May-29 16:59N 47°39' W 122°12'0 0.0
2017-May-29 16:29N 47°39' W 122°12'0 0.0
2017-May-29 15:59N 47°39' W 122°12'0 0.0
2017-May-29 15:29N 47°39' W 122°12'0 0.0
2017-May-29 14:59N 47°39' W 122°12'0 0.0
2017-May-29 13:59N 47°39' W 122°12'0 0.0
2017-May-29 13:29N 47°39' W 122°12'0 0.0
2017-May-29 12:59N 47°39' W 122°12'0 0.0
2017-May-29 12:26N 47°39' W 122°12'0 0.0
2017-May-29 11:50N 47°39' W 122°12'0 0.0
2017-May-29 11:14N 47°39' W 122°12'0 0.1
2017-May-29 10:53N 47°39' W 122°12'0 0.1
2017-May-29 10:29N 47°39' W 122°12'0 0.0
2017-May-29 09:50N 47°39' W 122°12'0 0.0
2017-May-29 09:29N 47°39' W 122°12'0 0.0
2017-May-29 08:59N 47°39' W 122°12'0 0.0
2017-May-29 08:29N 47°39' W 122°12'0 0.0
2017-May-29 07:56N 47°39' W 122°12'0 0.0
2017-May-29 07:23N 47°39' W 122°12'0 0.0
2017-May-29 06:53N 47°39' W 122°12'0 0.0
2017-May-29 06:26N 47°39' W 122°12'0 0.0
2017-May-29 05:59N 47°39' W 122°12'0 0.0
2017-May-29 05:29N 47°39' W 122°12'0 0.0
2017-May-29 04:59N 47°39' W 122°12'0 0.0
2017-May-29 04:20N 47°39' W 122°12'0 0.0
2017-May-29 03:50N 47°39' W 122°12'0 0.0
2017-May-29 03:08N 47°39' W 122°12'0 0.0
2017-May-29 02:50N 47°39' W 122°12'0 0.0
2017-May-29 02:29N 47°39' W 122°12'0 0.0
2017-May-29 01:38N 47°39' W 122°12'0 0.0
2017-May-29 01:26N 47°39' W 122°12'0 0.0
2017-May-29 00:59N 47°39' W 122°12'0 0.0
2017-May-29 00:08N 47°39' W 122°12'0 0.0
2017-May-28 23:38N 47°39' W 122°12'0 0.9
2017-May-28 23:29N 47°39' W 122°13'1 1.7
2017-May-28 22:58N 47°39' W 122°14'1 0.3
2017-May-28 20:10N 47°39' W 122°12'0 0.2
2017-May-28 19:55N 47°39' W 122°12'0 0.1
2017-May-28 19:28N 47°39' W 122°12'0 0.0
2017-May-28 18:52N 47°39' W 122°12'0 0.0
2017-May-28 18:07N 47°39' W 122°12'0 0.0
2017-May-28 17:58N 47°39' W 122°12'0 0.0
2017-May-28 17:28N 47°39' W 122°12'0 0.0
2017-May-28 16:55N 47°39' W 122°12'0 0.0
2017-May-28 16:25N 47°39' W 122°12'0 0.0
2017-May-28 15:58N 47°39' W 122°12'0 0.0
2017-May-28 15:28N 47°39' W 122°12'0 0.1
2017-May-28 14:46N 47°39' W 122°12'0 0.1
2017-May-28 13:58N 47°39' W 122°12'0 0.0
2017-May-28 13:19N 47°39' W 122°12'0 0.0
2017-May-28 12:52N 47°39' W 122°12'0 0.0
2017-May-28 12:25N 47°39' W 122°12'0 0.0
2017-May-28 11:55N 47°39' W 122°12'0 0.0
2017-May-28 11:25N 47°39' W 122°12'0 0.1
2017-May-28 10:58N 47°39' W 122°12'0 0.1
2017-May-28 10:13N 47°39' W 122°12'0 0.0
2017-May-28 09:58N 47°39' W 122°12'0 0.0
2017-May-28 09:25N 47°39' W 122°12'0 0.0
2017-May-28 08:58N 47°39' W 122°12'0 0.0
2017-May-28 08:28N 47°39' W 122°12'0 0.0
2017-May-28 07:58N 47°39' W 122°12'0 0.0
2017-May-28 07:19N 47°39' W 122°12'0 0.0
2017-May-28 06:55N 47°39' W 122°12'0 0.0
2017-May-28 06:28N 47°39' W 122°12'0 0.0
2017-May-28 05:55N 47°39' W 122°12'0 0.0
2017-May-28 05:19N 47°39' W 122°12'0 0.0
2017-May-28 04:55N 47°39' W 122°12'0 0.0
2017-May-28 04:10N 47°39' W 122°12'1 2.9
2017-May-28 03:53N 47°39' W 122°14'2 6.1
2017-May-28 03:30N 47°37' W 122°14'0 0.0
2017-May-28 03:00N 47°37' W 122°14'0 0.0
2017-May-28 02:27N 47°37' W 122°14'0 0.0
2017-May-28 02:00N 47°37' W 122°14'0 0.0
2017-May-28 01:30N 47°37' W 122°14'0 0.0
2017-May-28 01:00N 47°37' W 122°14'0 0.2
2017-May-28 00:22N 47°37' W 122°15'3 1.8
2017-May-27 22:52N 47°39' W 122°12'0 0.0
2017-May-27 22:25N 47°39' W 122°12'0 0.0
2017-May-27 21:56N 47°39' W 122°12'0 0.0
2017-May-27 21:11N 47°39' W 122°12'0 0.0
2017-May-27 20:52N 47°39' W 122°12'0 0.2
2017-May-27 20:28N 47°39' W 122°13'0 0.1
2017-May-27 19:46N 47°39' W 122°12'0 0.0
2017-May-27 19:28N 47°39' W 122°12'0 0.0
2017-May-27 18:55N 47°39' W 122°12'0 0.0
2017-May-27 18:28N 47°39' W 122°12'0 0.0
2017-May-27 17:55N 47°39' W 122°12'0 0.0
2017-May-27 17:25N 47°39' W 122°12'0 0.0
2017-May-27 16:58N 47°39' W 122°12'0 0.0
2017-May-27 16:28N 47°39' W 122°12'0 0.0
2017-May-27 15:58N 47°39' W 122°12'0 0.0
2017-May-27 15:28N 47°39' W 122°12'0 0.0
2017-May-27 14:55N 47°39' W 122°12'0 0.0
2017-May-27 14:25N 47°39' W 122°12'0 0.0
2017-May-27 13:25N 47°39' W 122°12'0 0.0
2017-May-27 12:52N 47°39' W 122°12'0 0.0
2017-May-27 12:28N 47°39' W 122°12'0 0.0
2017-May-27 11:58N 47°39' W 122°12'0 0.1
2017-May-27 11:28N 47°39' W 122°12'0 0.1
2017-May-27 10:52N 47°39' W 122°12'0 0.0
2017-May-27 10:22N 47°39' W 122°12'0 0.0
2017-May-27 09:43N 47°39' W 122°12'0 0.0
2017-May-27 09:22N 47°39' W 122°12'0 0.0
2017-May-27 08:58N 47°39' W 122°12'0 0.0
2017-May-27 08:25N 47°39' W 122°12'0 0.0
2017-May-27 07:55N 47°39' W 122°12'0 0.0
2017-May-27 07:28N 47°39' W 122°12'0 0.0
2017-May-27 06:55N 47°39' W 122°12'0 0.0
2017-May-27 06:28N 47°39' W 122°12'0 0.0
2017-May-27 05:58N 47°39' W 122°12'0 0.0
2017-May-27 05:25N 47°39' W 122°12'0 0.0
2017-May-27 04:55N 47°39' W 122°12'0 0.0
2017-May-27 04:25N 47°39' W 122°12'0 0.0
2017-May-27 03:52N 47°39' W 122°12'0 0.0
2017-May-27 03:28N 47°39' W 122°12'0 0.0
2017-May-27 02:58N 47°39' W 122°12'0 0.0
2017-May-27 02:28N 47°39' W 122°12'0 0.0
2017-May-27 01:58N 47°39' W 122°12'0 0.0
2017-May-27 01:22N 47°39' W 122°12'0 0.0
2017-May-27 00:58N 47°39' W 122°12'0 0.0
2017-May-27 00:22N 47°39' W 122°12'0 0.0
2017-May-26 23:58N 47°39' W 122°12'0 0.0
2017-May-26 23:19N 47°39' W 122°12'0 0.0
2017-May-26 22:58N 47°39' W 122°12'0 0.0
2017-May-26 22:28N 47°39' W 122°12'0 0.0
2017-May-26 21:55N 47°39' W 122°12'0 0.0
2017-May-26 21:22N 47°39' W 122°12'0 0.0
2017-May-26 20:58N 47°39' W 122°12'0 0.0
2017-May-26 20:25N 47°39' W 122°12'0 0.1
2017-May-26 19:58N 47°39' W 122°12'0 0.1
2017-May-26 19:25N 47°39' W 122°12'0 0.0
2017-May-26 18:46N 47°39' W 122°12'0 0.0
2017-May-26 18:28N 47°39' W 122°12'0 0.0
2017-May-26 17:52N 47°39' W 122°12'0 0.0
2017-May-26 17:28N 47°39' W 122°12'0 0.0
2017-May-26 16:58N 47°39' W 122°12'0 0.0
2017-May-26 16:28N 47°39' W 122°12'0 0.0
2017-May-26 14:43N 47°39' W 122°12'0 0.0
2017-May-26 14:19N 47°39' W 122°12'0 0.0
2017-May-26 13:28N 47°39' W 122°12'0 0.0
2017-May-26 12:52N 47°39' W 122°12'0 0.0
2017-May-26 12:25N 47°39' W 122°12'0 0.0
2017-May-26 11:49N 47°39' W 122°12'0 0.0
2017-May-26 11:25N 47°39' W 122°12'0 0.0
2017-May-26 10:49N 47°39' W 122°12'0 0.0
2017-May-26 10:28N 47°39' W 122°12'0 0.0
2017-May-26 09:52N 47°39' W 122°12'0 0.0
2017-May-26 09:22N 47°39' W 122°12'0 0.0
2017-May-26 08:55N 47°39' W 122°12'0 0.0
2017-May-26 08:28N 47°39' W 122°12'0 0.0
2017-May-26 07:58N 47°39' W 122°12'0 0.0
2017-May-26 07:28N 47°39' W 122°12'0 0.0
2017-May-26 06:58N 47°39' W 122°12'0 0.0
2017-May-26 06:16N 47°39' W 122°12'0 0.0
2017-May-26 05:58N 47°39' W 122°12'0 0.0
2017-May-26 05:28N 47°39' W 122°12'0 0.0
2017-May-26 04:58N 47°39' W 122°12'0 0.0
2017-May-26 04:25N 47°39' W 122°12'0 0.0
2017-May-26 03:58N 47°39' W 122°12'0 0.0
2017-May-26 03:28N 47°39' W 122°12'0 0.0
2017-May-26 02:58N 47°39' W 122°12'0 0.0
2017-May-26 02:10N 47°39' W 122°12'0 0.0
2017-May-26 01:58N 47°39' W 122°12'0 0.0
2017-May-26 01:28N 47°39' W 122°12'0 0.0
2017-May-26 00:58N 47°39' W 122°12'0 0.0
2017-May-26 00:28N 47°39' W 122°12'0 0.0
2017-May-25 23:58N 47°39' W 122°12'0 0.0
2017-May-25 23:28N 47°39' W 122°12'0 0.0
2017-May-25 22:55N 47°39' W 122°12'0 0.0
2017-May-25 22:22N 47°39' W 122°12'0 0.0
2017-May-25 21:58N 47°39' W 122°12'0 0.0
2017-May-25 21:28N 47°39' W 122°12'0 0.0
2017-May-25 20:52N 47°39' W 122°12'0 0.0
2017-May-25 20:28N 47°39' W 122°12'0 0.0
2017-May-25 19:58N 47°39' W 122°12'0 0.0
2017-May-25 19:28N 47°39' W 122°12'0 0.0
2017-May-25 18:58N 47°39' W 122°12'0 0.0
2017-May-25 18:28N 47°39' W 122°12'0 0.0
2017-May-25 17:58N 47°39' W 122°12'0 0.0
2017-May-25 17:25N 47°39' W 122°12'0 0.0
2017-May-25 16:58N 47°39' W 122°12'0 0.0
2017-May-25 16:25N 47°39' W 122°12'0 0.0
2017-May-25 15:58N 47°39' W 122°12'0 0.0
2017-May-25 15:22N 47°39' W 122°12'0 0.0
2017-May-25 14:37N 47°39' W 122°12'0 0.0
2017-May-25 13:52N 47°39' W 122°12'0 0.0
2017-May-25 13:28N 47°39' W 122°12'0 0.0
2017-May-25 12:58N 47°39' W 122°12'0 0.0
2017-May-25 12:10N 47°39' W 122°12'0 0.0
2017-May-25 11:49N 47°39' W 122°12'0 0.0
2017-May-25 11:28N 47°39' W 122°12'0 0.0
2017-May-25 10:55N 47°39' W 122°12'0 0.0
2017-May-25 10:13N 47°39' W 122°12'0 0.0
2017-May-25 09:43N 47°39' W 122°12'0 0.0
2017-May-25 09:25N 47°39' W 122°12'0 0.0
2017-May-25 08:58N 47°39' W 122°12'0 0.0
2017-May-25 08:28N 47°39' W 122°12'0 0.0
2017-May-25 07:59N 47°39' W 122°12'0 0.0
2017-May-25 07:16N 47°39' W 122°12'0 0.0
2017-May-25 06:49N 47°39' W 122°12'0 0.0
2017-May-25 06:25N 47°39' W 122°12'0 0.0
2017-May-25 05:58N 47°39' W 122°12'0 0.0
2017-May-25 05:22N 47°39' W 122°12'0 0.0
2017-May-25 04:58N 47°39' W 122°12'0 0.0
2017-May-25 04:13N 47°39' W 122°12'0 0.0
2017-May-25 03:52N 47°39' W 122°12'0 0.0
2017-May-25 03:28N 47°39' W 122°12'0 0.0
2017-May-25 02:46N 47°39' W 122°12'0 0.0
2017-May-25 02:22N 47°39' W 122°12'0 0.0
2017-May-25 01:58N 47°39' W 122°12'0 0.0
2017-May-25 01:19N 47°39' W 122°12'0 0.0
2017-May-25 00:55N 47°39' W 122°12'0 0.0
2017-May-25 00:04N 47°39' W 122°12'0 0.0
2017-May-24 23:40N 47°39' W 122°12'0 0.0
2017-May-24 23:28N 47°39' W 122°12'0 0.0
2017-May-24 22:58N 47°39' W 122°12'0 0.0
2017-May-24 22:28N 47°39' W 122°12'0 0.0
2017-May-24 21:58N 47°39' W 122°12'0 0.0
2017-May-24 21:25N 47°39' W 122°12'0 0.0
2017-May-24 20:34N 47°39' W 122°12'0 0.0
2017-May-24 20:28N 47°39' W 122°12'0 0.0
2017-May-24 19:52N 47°39' W 122°12'0 0.0
2017-May-24 19:22N 47°39' W 122°12'0 0.0
2017-May-24 18:58N 47°39' W 122°12'0 0.0
2017-May-24 18:19N 47°39' W 122°12'0 0.0
2017-May-24 17:52N 47°39' W 122°12'0 0.0
2017-May-24 17:28N 47°39' W 122°12'0 0.0
2017-May-24 16:58N 47°39' W 122°12'0 0.0
2017-May-24 16:28N 47°39' W 122°12'0 0.0
2017-May-24 15:52N 47°39' W 122°12'0 0.0
2017-May-24 15:28N 47°39' W 122°12'0 0.0
2017-May-24 14:55N 47°39' W 122°12'0 0.0
2017-May-24 14:28N 47°39' W 122°12'0 0.0
2017-May-24 13:22N 47°39' W 122°12'0 0.0
2017-May-24 12:52N 47°39' W 122°12'0 0.0
2017-May-24 12:28N 47°39' W 122°12'0 0.0
2017-May-24 11:58N 47°39' W 122°12'0 0.0
2017-May-24 11:28N 47°39' W 122°12'0 0.0
2017-May-24 10:52N 47°39' W 122°12'0 0.0
2017-May-24 10:22N 47°39' W 122°12'0 0.0
2017-May-24 09:58N 47°39' W 122°12'0 0.0
2017-May-24 09:16N 47°39' W 122°12'0 0.0
2017-May-24 08:55N 47°39' W 122°12'0 0.0
2017-May-24 08:28N 47°39' W 122°12'0 0.0
2017-May-24 07:58N 47°39' W 122°12'0 0.0
2017-May-24 07:28N 47°39' W 122°12'0 0.0
2017-May-24 06:49N 47°39' W 122°12'0 0.0
2017-May-24 06:13N 47°39' W 122°12'0 0.0
2017-May-24 05:58N 47°39' W 122°12'0 0.0
2017-May-24 05:28N 47°39' W 122°12'0 0.0
2017-May-24 04:58N 47°39' W 122°12'0 0.0
2017-May-24 04:28N 47°39' W 122°12'0 0.0
2017-May-24 03:58N 47°39' W 122°12'0 0.0
2017-May-24 03:22N 47°39' W 122°12'0 0.0
2017-May-24 02:58N 47°39' W 122°12'0 0.0
2017-May-24 02:28N 47°39' W 122°12'0 0.0
2017-May-24 01:34N 47°39' W 122°12'0 0.0
2017-May-24 01:22N 47°39' W 122°12'0 0.0
2017-May-24 00:58N 47°39' W 122°12'0 0.0
2017-May-24 00:28N 47°39' W 122°12'0 0.0
2017-May-23 23:55N 47°39' W 122°12'0 0.0
2017-May-23 23:28N 47°39' W 122°12'0 0.0
2017-May-23 22:52N 47°39' W 122°12'0 0.0
2017-May-23 22:25N 47°39' W 122°12'0 0.0
2017-May-23 21:58N 47°39' W 122°12'0 0.0
2017-May-23 21:25N 47°39' W 122°12'0 0.0
2017-May-23 20:58N 47°39' W 122°12'0 0.0
2017-May-23 20:28N 47°39' W 122°12'0 0.0
2017-May-23 19:52N 47°39' W 122°12'0 0.0
2017-May-23 19:28N 47°39' W 122°12'0 0.0
2017-May-23 18:52N 47°39' W 122°12'0 0.0
2017-May-23 18:19N 47°39' W 122°12'0 0.0
2017-May-23 17:58N 47°39' W 122°12'0 0.0
2017-May-23 17:28N 47°39' W 122°12'0 0.0
2017-May-23 16:55N 47°39' W 122°12'0 0.0
2017-May-23 16:25N 47°39' W 122°12'0 0.0
2017-May-23 15:58N 47°39' W 122°12'0 0.1
2017-May-23 15:28N 47°39' W 122°12'0 0.1
2017-May-23 14:58N 47°39' W 122°12'0 0.0
2017-May-23 14:28N 47°39' W 122°12'0 0.0
2017-May-23 13:25N 47°39' W 122°12'0 0.0
2017-May-23 12:58N 47°39' W 122°12'0 0.0
2017-May-23 12:25N 47°39' W 122°12'0 0.0
2017-May-23 11:55N 47°39' W 122°12'0 0.0
2017-May-23 11:28N 47°39' W 122°12'0 0.1
2017-May-23 10:58N 47°39' W 122°12'0 0.1
2017-May-23 10:28N 47°39' W 122°12'0 0.0
2017-May-23 09:55N 47°39' W 122°12'0 0.0
2017-May-23 09:28N 47°39' W 122°12'0 0.0
2017-May-23 08:58N 47°39' W 122°12'0 0.0
2017-May-23 08:28N 47°39' W 122°12'0 0.0
2017-May-23 07:52N 47°39' W 122°12'0 0.0
2017-May-23 07:16N 47°39' W 122°12'0 0.0
2017-May-23 06:58N 47°39' W 122°12'0 0.0
2017-May-23 06:25N 47°39' W 122°12'0 0.0
2017-May-23 05:58N 47°39' W 122°12'0 0.0
2017-May-23 05:25N 47°39' W 122°12'0 0.0
2017-May-23 04:58N 47°39' W 122°12'0 0.0
2017-May-23 04:28N 47°39' W 122°12'0 0.0
2017-May-23 03:58N 47°39' W 122°12'0 0.0
2017-May-23 03:28N 47°39' W 122°12'0 0.0
2017-May-23 02:58N 47°39' W 122°12'0 0.0
2017-May-23 02:16N 47°39' W 122°12'0 0.0
2017-May-23 01:55N 47°39' W 122°12'0 0.0
2017-May-23 01:28N 47°39' W 122°12'1 1.6
2017-May-23 00:52N 47°40' W 122°13'1 0.6
2017-May-22 23:03N 47°41' W 122°14'0 0.7
2017-May-22 22:59N 47°41' W 122°14'2 4.1
2017-May-22 22:30N 47°39' W 122°13'0 0.1
2017-May-22 21:58N 47°39' W 122°12'0 0.0
2017-May-22 21:28N 47°39' W 122°12'0 0.0
2017-May-22 20:58N 47°39' W 122°12'0 0.0
2017-May-22 20:28N 47°39' W 122°12'0 0.0
2017-May-22 19:58N 47°39' W 122°12'0 0.0
2017-May-22 19:28N 47°39' W 122°12'0 0.0
2017-May-22 18:55N 47°39' W 122°12'0 0.0
2017-May-22 18:28N 47°39' W 122°12'0 0.0
2017-May-22 17:58N 47°39' W 122°12'0 0.0
2017-May-22 17:28N 47°39' W 122°12'0 0.0
2017-May-22 16:58N 47°39' W 122°12'0 0.0
2017-May-22 16:25N 47°39' W 122°12'0 0.0
2017-May-22 15:58N 47°39' W 122°12'0 0.0
2017-May-22 15:28N 47°39' W 122°12'0 0.0
2017-May-22 14:58N 47°39' W 122°12'0 0.0
2017-May-22 13:55N 47°39' W 122°12'0 0.0
2017-May-22 13:28N 47°39' W 122°12'0 0.0
2017-May-22 12:58N 47°39' W 122°12'0 0.0
2017-May-22 12:28N 47°39' W 122°12'0 0.1
2017-May-22 11:58N 47°39' W 122°12'0 0.0
2017-May-22 11:25N 47°39' W 122°12'0 0.1
2017-May-22 10:58N 47°39' W 122°12'0 0.0
2017-May-22 10:25N 47°39' W 122°12'0 0.0
2017-May-22 09:58N 47°39' W 122°12'0 0.0
2017-May-22 09:28N 47°39' W 122°12'0 0.0
2017-May-22 08:55N 47°39' W 122°12'0 0.0
2017-May-22 08:22N 47°39' W 122°12'0 0.0
2017-May-22 07:55N 47°39' W 122°12'0 0.0
2017-May-22 07:28N 47°39' W 122°12'0 0.0
2017-May-22 06:55N 47°39' W 122°12'0 0.0
2017-May-22 06:28N 47°39' W 122°12'0 0.0
2017-May-22 05:58N 47°39' W 122°12'0 0.0
2017-May-22 05:28N 47°39' W 122°12'0 0.0
2017-May-22 04:52N 47°39' W 122°12'0 0.0
2017-May-22 04:28N 47°39' W 122°12'0 0.0
2017-May-22 03:58N 47°39' W 122°12'0 0.0
2017-May-22 03:28N 47°39' W 122°12'0 0.0
2017-May-22 02:55N 47°39' W 122°12'0 0.0
2017-May-22 02:22N 47°39' W 122°12'0 0.0
2017-May-22 01:58N 47°39' W 122°12'0 0.0
2017-May-22 01:28N 47°39' W 122°12'0 0.0
2017-May-22 00:58N 47°39' W 122°12'0 0.0
2017-May-22 00:28N 47°39' W 122°12'0 0.0
2017-May-21 23:58N 47°39' W 122°12'0 0.0
2017-May-21 23:28N 47°39' W 122°12'0 0.0
2017-May-21 22:58N 47°39' W 122°12'0 0.0
2017-May-21 22:28N 47°39' W 122°12'0 0.0
2017-May-21 21:58N 47°39' W 122°12'0 0.0
2017-May-21 21:28N 47°39' W 122°12'0 0.0
2017-May-21 20:58N 47°39' W 122°12'0 0.0
2017-May-21 20:28N 47°39' W 122°12'0 0.0
2017-May-21 19:58N 47°39' W 122°12'0 0.0
2017-May-21 19:19N 47°39' W 122°12'0 0.0
2017-May-21 18:55N 47°39' W 122°12'0 0.0
2017-May-21 18:28N 47°39' W 122°12'0 0.0
2017-May-21 17:55N 47°39' W 122°12'0 0.0
2017-May-21 17:28N 47°39' W 122°12'0 0.0
2017-May-21 16:58N 47°39' W 122°12'0 0.0
2017-May-21 16:28N 47°39' W 122°12'0 0.0
2017-May-21 15:58N 47°39' W 122°12'0 0.0
2017-May-21 15:28N 47°39' W 122°12'0 0.0
2017-May-21 14:55N 47°39' W 122°12'0 0.0
2017-May-21 14:28N 47°39' W 122°12'0 0.0
2017-May-21 13:28N 47°39' W 122°12'0 0.0
2017-May-21 12:58N 47°39' W 122°12'0 0.0
2017-May-21 12:25N 47°39' W 122°12'0 0.0
2017-May-21 11:58N 47°39' W 122°12'0 0.0
2017-May-21 11:22N 47°39' W 122°12'0 0.0
2017-May-21 10:55N 47°39' W 122°12'0 0.0
2017-May-21 09:55N 47°39' W 122°12'0 0.0
2017-May-21 09:22N 47°39' W 122°12'0 0.0
2017-May-21 08:55N 47°39' W 122°12'0 0.0
2017-May-21 08:25N 47°39' W 122°12'0 0.0
2017-May-21 07:43N 47°39' W 122°12'0 0.0
2017-May-21 07:25N 47°39' W 122°12'0 0.0
2017-May-21 06:52N 47°39' W 122°12'0 0.0
2017-May-21 06:04N 47°39' W 122°12'0 0.0
2017-May-21 05:58N 47°39' W 122°12'0 0.0
2017-May-21 05:22N 47°39' W 122°12'0 0.0
2017-May-21 04:58N 47°39' W 122°12'0 0.0
2017-May-21 04:28N 47°39' W 122°12'0 0.0
2017-May-21 03:52N 47°39' W 122°12'0 0.0
2017-May-21 03:25N 47°39' W 122°12'0 0.0
2017-May-21 02:58N 47°39' W 122°12'0 0.0
2017-May-21 02:28N 47°39' W 122°12'0 0.0
2017-May-21 01:58N 47°39' W 122°12'0 0.0
2017-May-21 01:25N 47°39' W 122°12'0 0.0
2017-May-21 00:58N 47°39' W 122°12'0 0.0
2017-May-21 00:28N 47°39' W 122°12'0 0.0
2017-May-20 23:58N 47°39' W 122°12'0 0.0
2017-May-20 23:28N 47°39' W 122°12'0 0.0
2017-May-20 22:55N 47°39' W 122°12'0 0.0
2017-May-20 22:28N 47°39' W 122°12'0 0.0
2017-May-20 21:55N 47°39' W 122°12'0 0.0
2017-May-20 21:22N 47°39' W 122°12'0 0.0
2017-May-20 20:58N 47°39' W 122°12'0 0.1
2017-May-20 20:28N 47°39' W 122°12'0 0.1
2017-May-20 19:40N 47°39' W 122°12'0 0.0
2017-May-20 19:22N 47°39' W 122°12'0 0.0
2017-May-20 18:52N 47°39' W 122°12'0 0.0
2017-May-20 18:28N 47°39' W 122°12'0 0.0
2017-May-20 17:55N 47°39' W 122°12'0 0.0
2017-May-20 17:16N 47°39' W 122°12'0 0.0
2017-May-20 16:58N 47°39' W 122°12'0 0.0
2017-May-20 16:28N 47°39' W 122°12'0 0.0
2017-May-20 15:58N 47°39' W 122°12'0 0.0
2017-May-20 15:10N 47°39' W 122°12'0 0.0
2017-May-20 14:52N 47°39' W 122°12'0 0.0
2017-May-20 14:28N 47°39' W 122°12'0 0.0
2017-May-20 13:19N 47°39' W 122°12'0 0.0
2017-May-20 12:55N 47°39' W 122°12'0 0.0
2017-May-20 12:25N 47°39' W 122°12'  

Dump ship's entire track history